sensor_id;sensor_type;location;lat;lon;timestamp;temperature;humidity
5086;DHT22;4715;51.660;7.082;2023-03-05T00:00:11;5.40;99.90
5086;DHT22;4715;51.660;7.082;2023-03-05T00:02:35;5.40;99.90
5086;DHT22;4715;51.660;7.082;2023-03-05T00:04:57;5.40;99.90
5086;DHT22;4715;51.660;7.082;2023-03-05T00:07:19;5.30;99.90
5086;DHT22;4715;51.660;7.082;2023-03-05T00:09:40;5.30;99.90
5086;DHT22;4715;51.660;7.082;2023-03-05T00:12:04;5.30;99.90
5086;DHT22;4715;51.660;7.082;2023-03-05T00:14:26;5.30;99.90
5086;DHT22;4715;51.660;7.082;2023-03-05T00:16:48;5.30;99.90
5086;DHT22;4715;51.660;7.082;2023-03-05T00:19:11;5.30;99.90
5086;DHT22;4715;51.660;7.082;2023-03-05T00:21:35;5.30;99.90
5086;DHT22;4715;51.660;7.082;2023-03-05T00:23:58;5.30;99.90
5086;DHT22;4715;51.660;7.082;2023-03-05T00:26:23;5.30;99.90
5086;DHT22;4715;51.660;7.082;2023-03-05T00:28:46;5.20;99.90
5086;DHT22;4715;51.660;7.082;2023-03-05T00:31:09;5.20;99.90
5086;DHT22;4715;51.660;7.082;2023-03-05T00:33:31;5.20;99.90
5086;DHT22;4715;51.660;7.082;2023-03-05T00:35:54;5.20;99.90
5086;DHT22;4715;51.660;7.082;2023-03-05T00:38:16;5.20;99.90
5086;DHT22;4715;51.660;7.082;2023-03-05T00:40:39;5.20;99.90
5086;DHT22;4715;51.660;7.082;2023-03-05T00:43:01;5.10;99.90
5086;DHT22;4715;51.660;7.082;2023-03-05T00:45:23;5.10;99.90
5086;DHT22;4715;51.660;7.082;2023-03-05T00:47:45;5.10;99.90
5086;DHT22;4715;51.660;7.082;2023-03-05T00:50:08;5.10;99.90
5086;DHT22;4715;51.660;7.082;2023-03-05T00:52:32;5.00;99.90
5086;DHT22;4715;51.660;7.082;2023-03-05T00:54:54;5.00;99.90
5086;DHT22;4715;51.660;7.082;2023-03-05T00:57:16;5.00;99.90
5086;DHT22;4715;51.660;7.082;2023-03-05T00:59:38;5.00;99.90
5086;DHT22;4715;51.660;7.082;2023-03-05T01:01:59;4.90;99.90
5086;DHT22;4715;51.660;7.082;2023-03-05T01:04:21;4.90;99.90
5086;DHT22;4715;51.660;7.082;2023-03-05T01:06:43;5.00;99.90
5086;DHT22;4715;51.660;7.082;2023-03-05T01:09:07;5.00;99.90
5086;DHT22;4715;51.660;7.082;2023-03-05T01:11:29;5.00;99.90
5086;DHT22;4715;51.660;7.082;2023-03-05T01:13:51;4.90;99.90
5086;DHT22;4715;51.660;7.082;2023-03-05T01:16:13;4.90;99.90
5086;DHT22;4715;51.660;7.082;2023-03-05T01:18:36;4.90;99.90
5086;DHT22;4715;51.660;7.082;2023-03-05T01:20:58;4.90;99.90
5086;DHT22;4715;51.660;7.082;2023-03-05T01:23:20;5.00;99.90
5086;DHT22;4715;51.660;7.082;2023-03-05T01:25:44;5.00;99.90
5086;DHT22;4715;51.660;7.082;2023-03-05T01:28:06;5.00;99.90
5086;DHT22;4715;51.660;7.082;2023-03-05T01:30:28;5.00;99.90
5086;DHT22;4715;51.660;7.082;2023-03-05T01:32:50;4.90;99.90
5086;DHT22;4715;51.660;7.082;2023-03-05T01:35:15;4.90;99.90
5086;DHT22;4715;51.660;7.082;2023-03-05T01:37:37;4.90;99.90
5086;DHT22;4715;51.660;7.082;2023-03-05T01:39:59;4.90;99.90
5086;DHT22;4715;51.660;7.082;2023-03-05T01:42:23;4.90;99.90
5086;DHT22;4715;51.660;7.082;2023-03-05T01:44:59;5.00;99.90
5086;DHT22;4715;51.660;7.082;2023-03-05T01:47:21;5.00;99.90
5086;DHT22;4715;51.660;7.082;2023-03-05T01:49:43;5.00;99.90
5086;DHT22;4715;51.660;7.082;2023-03-05T01:52:07;5.00;99.90
5086;DHT22;4715;51.660;7.082;2023-03-05T01:54:33;4.90;99.90
5086;DHT22;4715;51.660;7.082;2023-03-05T01:56:56;4.90;99.90
5086;DHT22;4715;51.660;7.082;2023-03-05T01:59:22;4.90;99.90
5086;DHT22;4715;51.660;7.082;2023-03-05T02:01:47;4.80;99.90
5086;DHT22;4715;51.660;7.082;2023-03-05T02:04:14;4.80;99.90
5086;DHT22;4715;51.660;7.082;2023-03-05T02:06:40;4.70;99.90
5086;DHT22;4715;51.660;7.082;2023-03-05T02:09:03;4.70;99.90
5086;DHT22;4715;51.660;7.082;2023-03-05T02:11:25;4.70;99.90
5086;DHT22;4715;51.660;7.082;2023-03-05T02:13:47;4.70;99.90
5086;DHT22;4715;51.660;7.082;2023-03-05T02:16:10;4.60;99.90
5086;DHT22;4715;51.660;7.082;2023-03-05T02:18:32;4.60;99.90
5086;DHT22;4715;51.660;7.082;2023-03-05T02:21:01;4.50;99.90
5086;DHT22;4715;51.660;7.082;2023-03-05T02:23:25;4.50;99.90
5086;DHT22;4715;51.660;7.082;2023-03-05T02:25:49;4.50;99.90
5086;DHT22;4715;51.660;7.082;2023-03-05T02:28:15;4.50;99.90
5086;DHT22;4715;51.660;7.082;2023-03-05T02:30:38;4.60;99.90
5086;DHT22;4715;51.660;7.082;2023-03-05T02:33:02;4.60;99.90
5086;DHT22;4715;51.660;7.082;2023-03-05T02:35:24;4.60;99.90
5086;DHT22;4715;51.660;7.082;2023-03-05T02:37:48;4.60;99.90
5086;DHT22;4715;51.660;7.082;2023-03-05T02:40:11;4.50;99.90
5086;DHT22;4715;51.660;7.082;2023-03-05T02:42:33;4.50;99.90
5086;DHT22;4715;51.660;7.082;2023-03-05T02:44:55;4.50;99.90
5086;DHT22;4715;51.660;7.082;2023-03-05T02:47:17;4.50;99.90
5086;DHT22;4715;51.660;7.082;2023-03-05T02:49:39;4.40;99.90
5086;DHT22;4715;51.660;7.082;2023-03-05T02:52:01;4.40;99.90
5086;DHT22;4715;51.660;7.082;2023-03-05T02:54:25;4.40;99.90
5086;DHT22;4715;51.660;7.082;2023-03-05T02:56:47;4.40;99.90
5086;DHT22;4715;51.660;7.082;2023-03-05T02:59:08;4.40;99.90
5086;DHT22;4715;51.660;7.082;2023-03-05T03:01:30;4.30;99.90
5086;DHT22;4715;51.660;7.082;2023-03-05T03:03:52;4.30;99.90
5086;DHT22;4715;51.660;7.082;2023-03-05T03:06:14;4.30;99.90
5086;DHT22;4715;51.660;7.082;2023-03-05T03:08:36;4.30;99.90
5086;DHT22;4715;51.660;7.082;2023-03-05T03:11:05;4.30;99.90
5086;DHT22;4715;51.660;7.082;2023-03-05T03:13:27;4.30;99.90
5086;DHT22;4715;51.660;7.082;2023-03-05T03:15:49;4.20;99.90
5086;DHT22;4715;51.660;7.082;2023-03-05T03:18:11;4.30;99.90
5086;DHT22;4715;51.660;7.082;2023-03-05T03:20:32;4.30;99.90
5086;DHT22;4715;51.660;7.082;2023-03-05T03:22:55;4.40;99.90
5086;DHT22;4715;51.660;7.082;2023-03-05T03:25:18;4.40;99.90
5086;DHT22;4715;51.660;7.082;2023-03-05T03:27:44;4.40;99.90
5086;DHT22;4715;51.660;7.082;2023-03-05T03:30:06;4.40;99.90
5086;DHT22;4715;51.660;7.082;2023-03-05T03:32:29;4.40;99.90
5086;DHT22;4715;51.660;7.082;2023-03-05T03:34:51;4.40;99.90
5086;DHT22;4715;51.660;7.082;2023-03-05T03:37:13;4.40;99.90
5086;DHT22;4715;51.660;7.082;2023-03-05T03:39:35;4.40;99.90
5086;DHT22;4715;51.660;7.082;2023-03-05T03:41:57;4.30;99.90
5086;DHT22;4715;51.660;7.082;2023-03-05T03:44:20;4.30;99.90
5086;DHT22;4715;51.660;7.082;2023-03-05T03:46:43;4.30;99.90
5086;DHT22;4715;51.660;7.082;2023-03-05T03:49:06;4.30;99.90
5086;DHT22;4715;51.660;7.082;2023-03-05T03:51:28;4.20;99.90
5086;DHT22;4715;51.660;7.082;2023-03-05T03:53:50;4.20;99.90
5086;DHT22;4715;51.660;7.082;2023-03-05T03:56:12;4.20;99.90
5086;DHT22;4715;51.660;7.082;2023-03-05T03:58:34;4.20;99.90
5086;DHT22;4715;51.660;7.082;2023-03-05T04:00:58;4.10;99.90
5086;DHT22;4715;51.660;7.082;2023-03-05T04:03:19;4.20;99.90
5086;DHT22;4715;51.660;7.082;2023-03-05T04:05:41;4.20;99.90
5086;DHT22;4715;51.660;7.082;2023-03-05T04:08:04;4.20;99.90
5086;DHT22;4715;51.660;7.082;2023-03-05T04:10:31;4.30;99.90
5086;DHT22;4715;51.660;7.082;2023-03-05T04:12:53;4.20;99.90
5086;DHT22;4715;51.660;7.082;2023-03-05T04:15:17;4.20;99.90
5086;DHT22;4715;51.660;7.082;2023-03-05T04:17:49;4.30;99.90
5086;DHT22;4715;51.660;7.082;2023-03-05T04:20:11;4.20;99.90
5086;DHT22;4715;51.660;7.082;2023-03-05T04:22:33;4.30;99.90
5086;DHT22;4715;51.660;7.082;2023-03-05T04:24:55;4.30;99.90
5086;DHT22;4715;51.660;7.082;2023-03-05T04:27:17;4.20;99.90
5086;DHT22;4715;51.660;7.082;2023-03-05T04:29:39;4.20;99.90
5086;DHT22;4715;51.660;7.082;2023-03-05T04:32:01;4.20;99.90
5086;DHT22;4715;51.660;7.082;2023-03-05T04:34:24;4.10;99.90
5086;DHT22;4715;51.660;7.082;2023-03-05T04:36:46;4.10;99.90
5086;DHT22;4715;51.660;7.082;2023-03-05T04:39:08;4.00;99.90
5086;DHT22;4715;51.660;7.082;2023-03-05T04:41:30;4.00;99.90
5086;DHT22;4715;51.660;7.082;2023-03-05T04:43:52;4.00;99.90
5086;DHT22;4715;51.660;7.082;2023-03-05T04:46:13;4.00;99.90
5086;DHT22;4715;51.660;7.082;2023-03-05T04:48:36;3.90;99.90
5086;DHT22;4715;51.660;7.082;2023-03-05T04:50:59;3.90;99.90
5086;DHT22;4715;51.660;7.082;2023-03-05T04:53:21;4.00;99.90
5086;DHT22;4715;51.660;7.082;2023-03-05T04:55:43;3.90;99.90
5086;DHT22;4715;51.660;7.082;2023-03-05T04:58:04;4.00;99.90
5086;DHT22;4715;51.660;7.082;2023-03-05T05:00:29;4.00;99.90
5086;DHT22;4715;51.660;7.082;2023-03-05T05:02:51;4.00;99.90
5086;DHT22;4715;51.660;7.082;2023-03-05T05:05:15;4.00;99.90
5086;DHT22;4715;51.660;7.082;2023-03-05T05:07:39;4.00;99.90
5086;DHT22;4715;51.660;7.082;2023-03-05T05:10:01;4.00;99.90
5086;DHT22;4715;51.660;7.082;2023-03-05T05:12:23;3.90;99.90
5086;DHT22;4715;51.660;7.082;2023-03-05T05:14:44;3.90;99.90
5086;DHT22;4715;51.660;7.082;2023-03-05T05:17:06;3.80;99.90
5086;DHT22;4715;51.660;7.082;2023-03-05T05:19:28;3.80;99.90
5086;DHT22;4715;51.660;7.082;2023-03-05T05:21:50;3.80;99.90
5086;DHT22;4715;51.660;7.082;2023-03-05T05:24:13;3.80;99.90
5086;DHT22;4715;51.660;7.082;2023-03-05T05:26:35;3.70;99.90
5086;DHT22;4715;51.660;7.082;2023-03-05T05:28:57;3.70;99.90
5086;DHT22;4715;51.660;7.082;2023-03-05T05:31:19;3.70;99.90
5086;DHT22;4715;51.660;7.082;2023-03-05T05:33:41;3.70;99.90
5086;DHT22;4715;51.660;7.082;2023-03-05T05:36:04;3.60;99.90
5086;DHT22;4715;51.660;7.082;2023-03-05T05:38:26;3.60;99.90
5086;DHT22;4715;51.660;7.082;2023-03-05T05:40:50;3.60;99.90
5086;DHT22;4715;51.660;7.082;2023-03-05T05:43:12;3.60;99.90
5086;DHT22;4715;51.660;7.082;2023-03-05T05:45:36;3.60;99.90
5086;DHT22;4715;51.660;7.082;2023-03-05T05:47:58;3.60;99.90
5086;DHT22;4715;51.660;7.082;2023-03-05T05:50:20;3.60;99.90
5086;DHT22;4715;51.660;7.082;2023-03-05T05:52:42;3.60;99.90
5086;DHT22;4715;51.660;7.082;2023-03-05T05:55:05;3.60;99.90
5086;DHT22;4715;51.660;7.082;2023-03-05T05:57:29;3.60;99.90
5086;DHT22;4715;51.660;7.082;2023-03-05T05:59:51;3.60;99.90
5086;DHT22;4715;51.660;7.082;2023-03-05T06:02:12;3.60;99.90
5086;DHT22;4715;51.660;7.082;2023-03-05T06:04:35;3.60;99.90
5086;DHT22;4715;51.660;7.082;2023-03-05T06:06:57;3.50;99.90
5086;DHT22;4715;51.660;7.082;2023-03-05T06:09:19;3.60;99.90
5086;DHT22;4715;51.660;7.082;2023-03-05T06:11:41;3.50;99.90
5086;DHT22;4715;51.660;7.082;2023-03-05T06:14:05;3.60;99.90
5086;DHT22;4715;51.660;7.082;2023-03-05T06:16:28;3.60;99.90
5086;DHT22;4715;51.660;7.082;2023-03-05T06:18:50;3.50;99.90
5086;DHT22;4715;51.660;7.082;2023-03-05T06:21:14;3.60;99.90
5086;DHT22;4715;51.660;7.082;2023-03-05T06:23:37;3.60;99.90
5086;DHT22;4715;51.660;7.082;2023-03-05T06:26:00;3.60;99.90
5086;DHT22;4715;51.660;7.082;2023-03-05T06:28:22;3.60;99.90
5086;DHT22;4715;51.660;7.082;2023-03-05T06:30:45;3.60;99.90
5086;DHT22;4715;51.660;7.082;2023-03-05T06:33:07;3.60;99.90
5086;DHT22;4715;51.660;7.082;2023-03-05T06:35:29;3.60;99.90
5086;DHT22;4715;51.660;7.082;2023-03-05T06:37:50;3.60;99.90
5086;DHT22;4715;51.660;7.082;2023-03-05T06:40:13;3.60;99.90
5086;DHT22;4715;51.660;7.082;2023-03-05T06:42:35;3.60;99.90
5086;DHT22;4715;51.660;7.082;2023-03-05T06:44:56;3.60;99.90
5086;DHT22;4715;51.660;7.082;2023-03-05T06:47:20;3.60;99.90
5086;DHT22;4715;51.660;7.082;2023-03-05T06:49:41;3.60;99.90
5086;DHT22;4715;51.660;7.082;2023-03-05T06:52:04;3.70;99.90
5086;DHT22;4715;51.660;7.082;2023-03-05T06:54:26;3.70;99.90
5086;DHT22;4715;51.660;7.082;2023-03-05T06:56:48;3.70;99.90
5086;DHT22;4715;51.660;7.082;2023-03-05T06:59:11;3.70;99.90
5086;DHT22;4715;51.660;7.082;2023-03-05T07:01:33;3.70;99.90
5086;DHT22;4715;51.660;7.082;2023-03-05T07:03:57;3.70;99.90
5086;DHT22;4715;51.660;7.082;2023-03-05T07:06:20;3.70;99.90
5086;DHT22;4715;51.660;7.082;2023-03-05T07:08:47;3.70;99.90
5086;DHT22;4715;51.660;7.082;2023-03-05T07:11:09;3.70;99.90
5086;DHT22;4715;51.660;7.082;2023-03-05T07:13:31;3.70;99.90
5086;DHT22;4715;51.660;7.082;2023-03-05T07:15:53;3.70;99.90
5086;DHT22;4715;51.660;7.082;2023-03-05T07:18:15;3.80;99.90
5086;DHT22;4715;51.660;7.082;2023-03-05T07:20:38;3.80;99.90
5086;DHT22;4715;51.660;7.082;2023-03-05T07:23:00;3.90;99.90
5086;DHT22;4715;51.660;7.082;2023-03-05T07:25:22;3.90;99.90
5086;DHT22;4715;51.660;7.082;2023-03-05T07:27:44;3.90;99.90
5086;DHT22;4715;51.660;7.082;2023-03-05T07:30:07;3.90;99.90
5086;DHT22;4715;51.660;7.082;2023-03-05T07:32:33;4.00;99.90
5086;DHT22;4715;51.660;7.082;2023-03-05T07:34:55;3.90;99.90
5086;DHT22;4715;51.660;7.082;2023-03-05T07:37:19;4.00;99.90
5086;DHT22;4715;51.660;7.082;2023-03-05T07:39:41;4.00;99.90
5086;DHT22;4715;51.660;7.082;2023-03-05T07:42:13;4.00;99.90
5086;DHT22;4715;51.660;7.082;2023-03-05T07:44:35;4.00;99.90
5086;DHT22;4715;51.660;7.082;2023-03-05T07:47:01;4.10;99.90
5086;DHT22;4715;51.660;7.082;2023-03-05T07:49:24;4.10;99.90
5086;DHT22;4715;51.660;7.082;2023-03-05T07:51:46;4.10;99.90
5086;DHT22;4715;51.660;7.082;2023-03-05T07:54:10;4.10;99.90
5086;DHT22;4715;51.660;7.082;2023-03-05T07:56:33;4.10;99.90
5086;DHT22;4715;51.660;7.082;2023-03-05T07:58:58;4.20;99.90
5086;DHT22;4715;51.660;7.082;2023-03-05T08:01:21;4.10;99.90
5086;DHT22;4715;51.660;7.082;2023-03-05T08:03:43;4.10;99.90
5086;DHT22;4715;51.660;7.082;2023-03-05T08:06:06;4.20;99.90
5086;DHT22;4715;51.660;7.082;2023-03-05T08:08:27;4.20;99.90
5086;DHT22;4715;51.660;7.082;2023-03-05T08:10:51;4.30;99.90
5086;DHT22;4715;51.660;7.082;2023-03-05T08:13:12;4.30;99.90
5086;DHT22;4715;51.660;7.082;2023-03-05T08:15:35;4.30;99.90
5086;DHT22;4715;51.660;7.082;2023-03-05T08:17:58;4.30;99.90
5086;DHT22;4715;51.660;7.082;2023-03-05T08:20:20;4.40;99.90
5086;DHT22;4715;51.660;7.082;2023-03-05T08:22:41;4.40;99.90
5086;DHT22;4715;51.660;7.082;2023-03-05T08:25:05;4.40;99.90
5086;DHT22;4715;51.660;7.082;2023-03-05T08:27:28;4.50;99.90
5086;DHT22;4715;51.660;7.082;2023-03-05T08:29:50;4.50;99.90
5086;DHT22;4715;51.660;7.082;2023-03-05T08:32:12;4.60;99.90
5086;DHT22;4715;51.660;7.082;2023-03-05T08:34:34;4.60;99.90
5086;DHT22;4715;51.660;7.082;2023-03-05T08:36:56;4.60;99.90
5086;DHT22;4715;51.660;7.082;2023-03-05T08:39:18;4.60;99.90
5086;DHT22;4715;51.660;7.082;2023-03-05T08:41:42;4.60;99.90
5086;DHT22;4715;51.660;7.082;2023-03-05T08:44:05;4.60;99.90
5086;DHT22;4715;51.660;7.082;2023-03-05T08:46:27;4.70;99.90
5086;DHT22;4715;51.660;7.082;2023-03-05T08:48:49;4.70;99.90
5086;DHT22;4715;51.660;7.082;2023-03-05T08:51:13;4.80;99.90
5086;DHT22;4715;51.660;7.082;2023-03-05T08:53:35;4.70;99.90
5086;DHT22;4715;51.660;7.082;2023-03-05T08:55:57;4.70;99.90
5086;DHT22;4715;51.660;7.082;2023-03-05T08:58:19;4.60;99.90
5086;DHT22;4715;51.660;7.082;2023-03-05T09:00:42;4.60;99.90
5086;DHT22;4715;51.660;7.082;2023-03-05T09:03:04;4.60;99.90
5086;DHT22;4715;51.660;7.082;2023-03-05T09:05:26;4.60;99.90
5086;DHT22;4715;51.660;7.082;2023-03-05T09:07:48;4.70;99.90
5086;DHT22;4715;51.660;7.082;2023-03-05T09:10:11;4.70;99.90
5086;DHT22;4715;51.660;7.082;2023-03-05T09:12:34;4.80;99.90
5086;DHT22;4715;51.660;7.082;2023-03-05T09:14:56;4.90;99.90
5086;DHT22;4715;51.660;7.082;2023-03-05T09:17:19;4.90;99.90
5086;DHT22;4715;51.660;7.082;2023-03-05T09:19:41;5.00;99.90
5086;DHT22;4715;51.660;7.082;2023-03-05T09:22:06;5.00;99.90
5086;DHT22;4715;51.660;7.082;2023-03-05T09:24:27;5.00;99.90
5086;DHT22;4715;51.660;7.082;2023-03-05T09:26:49;5.00;99.90
5086;DHT22;4715;51.660;7.082;2023-03-05T09:29:11;5.00;99.90
5086;DHT22;4715;51.660;7.082;2023-03-05T09:31:33;5.00;99.90
5086;DHT22;4715;51.660;7.082;2023-03-05T09:33:56;5.00;99.90
5086;DHT22;4715;51.660;7.082;2023-03-05T09:36:20;5.00;99.90
5086;DHT22;4715;51.660;7.082;2023-03-05T09:38:43;5.00;99.90
5086;DHT22;4715;51.660;7.082;2023-03-05T09:41:06;5.00;99.90
5086;DHT22;4715;51.660;7.082;2023-03-05T09:43:43;5.00;99.90
5086;DHT22;4715;51.660;7.082;2023-03-05T09:46:17;5.00;99.90
5086;DHT22;4715;51.660;7.082;2023-03-05T09:48:49;5.00;99.90
5086;DHT22;4715;51.660;7.082;2023-03-05T09:51:16;5.00;99.90
5086;DHT22;4715;51.660;7.082;2023-03-05T09:53:45;5.10;99.90
5086;DHT22;4715;51.660;7.082;2023-03-05T09:56:10;5.10;99.90
5086;DHT22;4715;51.660;7.082;2023-03-05T09:58:35;5.20;99.90
5086;DHT22;4715;51.660;7.082;2023-03-05T10:01:00;5.30;99.90
5086;DHT22;4715;51.660;7.082;2023-03-05T10:03:27;5.50;99.90
5086;DHT22;4715;51.660;7.082;2023-03-05T10:06:01;5.60;99.90
5086;DHT22;4715;51.660;7.082;2023-03-05T10:08:31;5.70;99.90
5086;DHT22;4715;51.660;7.082;2023-03-05T10:10:54;5.70;99.90
5086;DHT22;4715;51.660;7.082;2023-03-05T10:13:21;5.60;99.90
5086;DHT22;4715;51.660;7.082;2023-03-05T10:15:50;5.60;99.90
5086;DHT22;4715;51.660;7.082;2023-03-05T10:18:23;5.50;99.90
5086;DHT22;4715;51.660;7.082;2023-03-05T10:20:53;5.50;99.90
5086;DHT22;4715;51.660;7.082;2023-03-05T10:23:27;5.40;99.90
5086;DHT22;4715;51.660;7.082;2023-03-05T10:25:56;5.40;99.90
5086;DHT22;4715;51.660;7.082;2023-03-05T10:28:22;5.40;99.90
5086;DHT22;4715;51.660;7.082;2023-03-05T10:31:02;5.50;99.90
5086;DHT22;4715;51.660;7.082;2023-03-05T10:33:32;5.60;99.90
5086;DHT22;4715;51.660;7.082;2023-03-05T10:39:23;5.80;99.90
5086;DHT22;4715;51.660;7.082;2023-03-05T10:41:56;5.90;99.90
5086;DHT22;4715;51.660;7.082;2023-03-05T10:44:31;5.90;99.90
5086;DHT22;4715;51.660;7.082;2023-03-05T10:46:56;5.90;99.90
5086;DHT22;4715;51.660;7.082;2023-03-05T10:49:20;5.90;99.90
5086;DHT22;4715;51.660;7.082;2023-03-05T10:51:51;6.00;99.90
5086;DHT22;4715;51.660;7.082;2023-03-05T10:54:18;6.10;99.90
5086;DHT22;4715;51.660;7.082;2023-03-05T10:56:44;6.10;99.90
5086;DHT22;4715;51.660;7.082;2023-03-05T10:59:09;6.20;99.90
5086;DHT22;4715;51.660;7.082;2023-03-05T11:01:30;6.30;99.90
5086;DHT22;4715;51.660;7.082;2023-03-05T11:03:55;6.40;99.90
5086;DHT22;4715;51.660;7.082;2023-03-05T11:06:31;6.60;99.90
5086;DHT22;4715;51.660;7.082;2023-03-05T11:08:55;6.80;99.90
5086;DHT22;4715;51.660;7.082;2023-03-05T11:11:19;6.80;99.90
5086;DHT22;4715;51.660;7.082;2023-03-05T11:13:53;6.70;99.90
5086;DHT22;4715;51.660;7.082;2023-03-05T11:16:18;6.70;99.90
5086;DHT22;4715;51.660;7.082;2023-03-05T11:18:39;6.60;99.90
5086;DHT22;4715;51.660;7.082;2023-03-05T11:21:07;6.60;99.90
5086;DHT22;4715;51.660;7.082;2023-03-05T11:23:29;6.60;99.90
5086;DHT22;4715;51.660;7.082;2023-03-05T11:25:59;6.50;99.90
5086;DHT22;4715;51.660;7.082;2023-03-05T11:28:27;6.50;99.90
5086;DHT22;4715;51.660;7.082;2023-03-05T11:30:59;6.40;99.90
5086;DHT22;4715;51.660;7.082;2023-03-05T11:33:21;6.30;99.90
5086;DHT22;4715;51.660;7.082;2023-03-05T11:35:46;6.20;99.90
5086;DHT22;4715;51.660;7.082;2023-03-05T11:38:16;6.20;99.90
5086;DHT22;4715;51.660;7.082;2023-03-05T11:40:39;6.20;99.90
5086;DHT22;4715;51.660;7.082;2023-03-05T11:43:03;6.20;99.90
5086;DHT22;4715;51.660;7.082;2023-03-05T11:45:28;6.20;99.90
5086;DHT22;4715;51.660;7.082;2023-03-05T11:47:51;6.20;99.90
5086;DHT22;4715;51.660;7.082;2023-03-05T11:50:19;6.30;99.90
5086;DHT22;4715;51.660;7.082;2023-03-05T11:52:46;6.30;99.90
5086;DHT22;4715;51.660;7.082;2023-03-05T11:55:14;6.30;99.90
5086;DHT22;4715;51.660;7.082;2023-03-05T11:57:42;6.30;99.90
5086;DHT22;4715;51.660;7.082;2023-03-05T12:00:06;6.20;99.90
5086;DHT22;4715;51.660;7.082;2023-03-05T12:02:33;6.10;99.90
5086;DHT22;4715;51.660;7.082;2023-03-05T12:04:55;6.10;99.90
5086;DHT22;4715;51.660;7.082;2023-03-05T12:07:21;6.20;99.90
5086;DHT22;4715;51.660;7.082;2023-03-05T12:09:46;6.30;99.90
5086;DHT22;4715;51.660;7.082;2023-03-05T12:12:19;6.30;99.90
5086;DHT22;4715;51.660;7.082;2023-03-05T12:14:50;6.40;99.90
5086;DHT22;4715;51.660;7.082;2023-03-05T12:17:24;6.60;99.90
5086;DHT22;4715;51.660;7.082;2023-03-05T12:19:57;6.70;99.90
5086;DHT22;4715;51.660;7.082;2023-03-05T12:22:35;6.90;99.90
5086;DHT22;4715;51.660;7.082;2023-03-05T12:25:22;7.10;99.90
5086;DHT22;4715;51.660;7.082;2023-03-05T12:27:45;7.30;99.90
5086;DHT22;4715;51.660;7.082;2023-03-05T12:33:29;7.50;99.90
5086;DHT22;4715;51.660;7.082;2023-03-05T12:35:52;7.80;99.90
5086;DHT22;4715;51.660;7.082;2023-03-05T12:38:28;7.90;99.90
5086;DHT22;4715;51.660;7.082;2023-03-05T12:40:51;8.00;99.90
5086;DHT22;4715;51.660;7.082;2023-03-05T12:43:31;8.00;99.90
5086;DHT22;4715;51.660;7.082;2023-03-05T12:46:21;8.00;99.90
5086;DHT22;4715;51.660;7.082;2023-03-05T12:48:43;7.90;99.90
5086;DHT22;4715;51.660;7.082;2023-03-05T12:51:12;7.80;99.90
5086;DHT22;4715;51.660;7.082;2023-03-05T12:53:34;7.90;99.90
5086;DHT22;4715;51.660;7.082;2023-03-05T12:56:02;8.10;99.90
5086;DHT22;4715;51.660;7.082;2023-03-05T12:58:36;8.20;99.90
5086;DHT22;4715;51.660;7.082;2023-03-05T13:01:02;8.30;99.90
5086;DHT22;4715;51.660;7.082;2023-03-05T13:03:30;8.30;99.90
5086;DHT22;4715;51.660;7.082;2023-03-05T13:05:56;8.50;99.90
5086;DHT22;4715;51.660;7.082;2023-03-05T13:08:22;8.50;99.90
5086;DHT22;4715;51.660;7.082;2023-03-05T13:10:51;8.50;99.90
5086;DHT22;4715;51.660;7.082;2023-03-05T13:13:14;8.60;99.90
5086;DHT22;4715;51.660;7.082;2023-03-05T13:15:36;8.70;99.90
5086;DHT22;4715;51.660;7.082;2023-03-05T13:17:59;8.70;99.90
5086;DHT22;4715;51.660;7.082;2023-03-05T13:20:32;8.60;99.90
5086;DHT22;4715;51.660;7.082;2023-03-05T13:23:13;8.40;99.90
5086;DHT22;4715;51.660;7.082;2023-03-05T13:25:36;8.30;99.90
5086;DHT22;4715;51.660;7.082;2023-03-05T13:28:02;8.20;99.90
5086;DHT22;4715;51.660;7.082;2023-03-05T13:30:27;8.20;99.90
5086;DHT22;4715;51.660;7.082;2023-03-05T13:32:51;8.10;99.90
5086;DHT22;4715;51.660;7.082;2023-03-05T13:35:13;8.10;99.90
5086;DHT22;4715;51.660;7.082;2023-03-05T13:37:36;8.10;99.90
5086;DHT22;4715;51.660;7.082;2023-03-05T13:39:59;8.10;99.90
5086;DHT22;4715;51.660;7.082;2023-03-05T13:42:26;8.10;99.90
5086;DHT22;4715;51.660;7.082;2023-03-05T13:44:53;8.00;99.90
5086;DHT22;4715;51.660;7.082;2023-03-05T13:47:19;7.90;99.90
5086;DHT22;4715;51.660;7.082;2023-03-05T13:49:41;7.80;99.90
5086;DHT22;4715;51.660;7.082;2023-03-05T13:52:04;7.70;99.90
5086;DHT22;4715;51.660;7.082;2023-03-05T13:54:27;7.60;99.90
5086;DHT22;4715;51.660;7.082;2023-03-05T13:56:53;7.60;99.90
5086;DHT22;4715;51.660;7.082;2023-03-05T13:59:18;7.60;99.90
5086;DHT22;4715;51.660;7.082;2023-03-05T14:01:42;7.50;99.90
5086;DHT22;4715;51.660;7.082;2023-03-05T14:04:06;7.40;99.90
5086;DHT22;4715;51.660;7.082;2023-03-05T14:06:29;7.50;99.90
5086;DHT22;4715;51.660;7.082;2023-03-05T14:08:53;7.50;99.90
5086;DHT22;4715;51.660;7.082;2023-03-05T14:11:16;7.50;99.90
5086;DHT22;4715;51.660;7.082;2023-03-05T14:13:39;7.50;99.90
5086;DHT22;4715;51.660;7.082;2023-03-05T14:16:04;7.70;99.90
5086;DHT22;4715;51.660;7.082;2023-03-05T14:18:26;7.90;99.90
5086;DHT22;4715;51.660;7.082;2023-03-05T14:21:03;8.10;99.90
5086;DHT22;4715;51.660;7.082;2023-03-05T14:23:34;8.20;99.90
5086;DHT22;4715;51.660;7.082;2023-03-05T14:26:27;8.60;99.90
5086;DHT22;4715;51.660;7.082;2023-03-05T14:28:51;8.90;99.90
5086;DHT22;4715;51.660;7.082;2023-03-05T14:31:16;9.00;99.90
5086;DHT22;4715;51.660;7.082;2023-03-05T14:33:38;9.00;99.90
5086;DHT22;4715;51.660;7.082;2023-03-05T14:36:02;9.00;99.90
5086;DHT22;4715;51.660;7.082;2023-03-05T14:38:29;9.00;99.90
5086;DHT22;4715;51.660;7.082;2023-03-05T14:40:53;8.90;99.90
5086;DHT22;4715;51.660;7.082;2023-03-05T14:43:15;8.70;99.90
5086;DHT22;4715;51.660;7.082;2023-03-05T14:45:38;8.60;99.90
5086;DHT22;4715;51.660;7.082;2023-03-05T14:48:05;8.40;99.90
5086;DHT22;4715;51.660;7.082;2023-03-05T14:50:28;8.30;99.90
5086;DHT22;4715;51.660;7.082;2023-03-05T14:52:53;8.30;99.90
5086;DHT22;4715;51.660;7.082;2023-03-05T14:55:18;8.20;99.90
5086;DHT22;4715;51.660;7.082;2023-03-05T14:57:40;8.30;99.90
5086;DHT22;4715;51.660;7.082;2023-03-05T15:00:03;8.40;99.90
5086;DHT22;4715;51.660;7.082;2023-03-05T15:02:26;8.60;99.90
5086;DHT22;4715;51.660;7.082;2023-03-05T15:04:49;8.70;99.90
5086;DHT22;4715;51.660;7.082;2023-03-05T15:07:16;8.70;99.90
5086;DHT22;4715;51.660;7.082;2023-03-05T15:09:38;8.80;99.90
5086;DHT22;4715;51.660;7.082;2023-03-05T15:12:00;8.60;99.90
5086;DHT22;4715;51.660;7.082;2023-03-05T15:14:22;8.40;99.90
5086;DHT22;4715;51.660;7.082;2023-03-05T15:16:44;8.30;99.90
5086;DHT22;4715;51.660;7.082;2023-03-05T15:19:09;8.10;99.90
5086;DHT22;4715;51.660;7.082;2023-03-05T15:21:33;7.90;99.90
5086;DHT22;4715;51.660;7.082;2023-03-05T15:23:55;7.70;99.90
5086;DHT22;4715;51.660;7.082;2023-03-05T15:26:17;7.50;99.90
5086;DHT22;4715;51.660;7.082;2023-03-05T15:28:41;7.50;99.90
5086;DHT22;4715;51.660;7.082;2023-03-05T15:31:04;7.40;99.90
5086;DHT22;4715;51.660;7.082;2023-03-05T15:33:27;7.30;99.90
5086;DHT22;4715;51.660;7.082;2023-03-05T15:35:49;7.20;99.90
5086;DHT22;4715;51.660;7.082;2023-03-05T15:38:13;7.10;99.90
5086;DHT22;4715;51.660;7.082;2023-03-05T15:40:35;7.20;99.90
5086;DHT22;4715;51.660;7.082;2023-03-05T15:42:58;7.20;99.90
5086;DHT22;4715;51.660;7.082;2023-03-05T15:45:20;7.20;99.90
5086;DHT22;4715;51.660;7.082;2023-03-05T15:47:42;7.10;99.90
5086;DHT22;4715;51.660;7.082;2023-03-05T15:50:05;7.10;99.90
5086;DHT22;4715;51.660;7.082;2023-03-05T15:52:27;7.10;99.90
5086;DHT22;4715;51.660;7.082;2023-03-05T15:54:50;7.00;99.90
5086;DHT22;4715;51.660;7.082;2023-03-05T15:57:12;6.90;99.90
5086;DHT22;4715;51.660;7.082;2023-03-05T15:59:34;6.90;99.90
5086;DHT22;4715;51.660;7.082;2023-03-05T16:01:56;6.90;99.90